Hayward, Wisconsin
Current Conditions -  °F | °C
As of 11:53 AM on Friday 24 Oct 2014 (Local Time) from KHYR Reporting Station
Clear Clear  
Wind Chill: 57°   Ceiling: Unl
Heat Index: 57°   Visibility: 10mi
Dew Point: 48°   Wind: 13mph
Humidity: 72%   Direction: 160°SSE
Pressure: 29.88"   Gusts: NA
Location:  46.01°N, 91.48°W
Report Text: KHYR 241653Z AUTO 16011KT 10SM CLR 14/09 A2988 RMK AO2 SLP123 T01390089
Loading
Personal Weather Stations






























Interactive Weather Map New forecast layout! Learn more

10-Day Weather Forecast

Advertisements
Track Severe Weather on mobile